createdAt,value
2018-08-06T00:01:24.189Z,90.12
2018-08-06T00:02:24.184Z,90.98
2018-08-06T00:04:17.128Z,90.59
2018-08-06T00:05:17.126Z,90.98
2018-08-06T00:07:10.052Z,90.59
2018-08-06T00:08:10.066Z,90.98
2018-08-06T00:10:03.017Z,90.12
2018-08-06T00:11:03.012Z,90.12
2018-08-06T00:12:55.940Z,91.27
2018-08-06T00:13:55.958Z,90.50
2018-08-06T00:15:48.916Z,90.12
2018-08-06T00:16:48.909Z,90.02
2018-08-06T00:18:42.029Z,90.12
2018-08-06T00:19:41.849Z,90.12
2018-08-06T00:21:34.797Z,90.41
2018-08-06T00:22:34.795Z,89.25
2018-08-06T00:24:27.743Z,90.02
2018-08-06T00:25:27.737Z,90.41
2018-08-06T00:27:20.667Z,89.58
2018-08-06T00:28:20.685Z,90.50
2018-08-06T00:30:13.630Z,89.73
2018-08-06T00:31:13.628Z,89.64
2018-08-06T00:33:06.555Z,89.44
2018-08-06T00:34:06.575Z,89.44
2018-08-06T00:35:59.523Z,90.59
2018-08-06T00:36:59.518Z,90.31
2018-08-06T00:38:52.448Z,90.02
2018-08-06T00:39:52.463Z,90.41
2018-08-06T00:41:45.496Z,90.50
2018-08-06T00:42:45.556Z,91.27
2018-08-06T00:44:38.446Z,92.23
2018-08-06T00:45:38.441Z,91.75
2018-08-06T00:47:31.373Z,91.27
2018-08-06T00:48:31.390Z,91.46
2018-08-06T00:50:24.336Z,92.04
2018-08-06T00:51:24.333Z,91.75
2018-08-06T00:53:17.263Z,93.24
2018-08-06T00:54:17.278Z,92.38
2018-08-06T00:56:10.231Z,93.05
2018-08-06T00:57:10.220Z,93.15
2018-08-06T00:59:03.150Z,94.98
2018-08-06T01:00:03.166Z,94.98
2018-08-06T01:01:56.154Z,95.65
2018-08-06T01:02:56.150Z,95.65
2018-08-06T01:04:49.099Z,96.61
2018-08-06T01:05:49.095Z,95.65
2018-08-06T01:07:42.026Z,96.70
2018-08-06T01:08:42.208Z,96.80
2018-08-06T01:10:34.990Z,96.32
2018-08-06T01:11:34.986Z,97.09
2018-08-06T01:13:27.911Z,98.14
2018-08-06T01:14:27.928Z,98.91
2018-08-06T01:16:20.876Z,99.35
2018-08-06T01:17:20.872Z,99.44
2018-08-06T01:19:13.804Z,99.78
2018-08-06T01:20:13.827Z,99.44
2018-08-06T01:22:06.769Z,99.49
2018-08-06T01:23:06.768Z,99.59
2018-08-06T01:24:59.711Z,99.73
2018-08-06T01:25:59.709Z,99.25
2018-08-06T01:27:52.636Z,99.83
2018-08-06T01:28:52.652Z,99.99
2018-08-06T01:30:45.615Z,98.82
2018-08-06T01:31:45.608Z,99.59
2018-08-06T01:33:38.536Z,99.44
2018-08-06T01:34:38.552Z,99.98
2018-08-06T01:36:31.500Z,99.99
2018-08-06T01:37:31.495Z,99.83
2018-08-06T01:39:24.421Z,99.99
2018-08-06T01:40:24.436Z,99.99
2018-08-06T01:42:17.387Z,99.99
2018-08-06T01:43:17.384Z,99.99
2018-08-06T01:45:10.332Z,99.99
2018-08-06T01:46:10.326Z,99.99
2018-08-06T01:48:03.258Z,99.99
2018-08-06T01:49:03.272Z,99.99
2018-08-06T01:50:56.231Z,99.99
2018-08-06T01:51:56.219Z,99.99
2018-08-06T01:53:49.155Z,99.99
2018-08-06T01:54:49.171Z,99.99
2018-08-06T02:23:41.351Z,99.99
2018-08-06T02:24:41.346Z,99.99
2018-08-06T02:26:34.275Z,99.99
2018-08-06T02:27:34.266Z,99.99
2018-08-06T02:29:27.183Z,99.99
2018-08-06T02:30:27.192Z,99.99
2018-08-06T02:32:20.137Z,99.99
2018-08-06T02:33:20.130Z,99.99
2018-08-06T02:35:13.053Z,99.99
2018-08-06T02:36:13.070Z,99.99
2018-08-06T02:38:06.012Z,99.99
2018-08-06T02:39:06.001Z,99.99
2018-08-06T02:40:58.956Z,99.99
2018-08-06T02:41:58.950Z,99.99
2018-08-06T02:43:51.880Z,99.99
2018-08-06T02:44:51.893Z,99.99
2018-08-06T02:46:44.834Z,99.99
2018-08-06T02:47:44.830Z,99.99
2018-08-06T02:49:37.757Z,99.99
2018-08-06T02:50:37.773Z,99.99
2018-08-06T02:52:30.731Z,99.99
2018-08-06T02:53:30.722Z,99.99
2018-08-06T02:55:23.655Z,99.99
2018-08-06T02:56:23.672Z,99.99
2018-08-06T02:58:16.622Z,99.99
2018-08-06T02:59:16.614Z,99.99
2018-08-06T03:01:09.556Z,99.99
2018-08-06T03:02:09.556Z,99.99
2018-08-06T03:04:02.522Z,99.99
2018-08-06T03:05:02.535Z,99.99
2018-08-06T03:06:55.488Z,99.99
2018-08-06T03:07:55.481Z,99.99
2018-08-06T03:09:48.407Z,99.99
2018-08-06T03:10:48.417Z,99.99
2018-08-06T03:12:41.371Z,99.99
2018-08-06T03:13:41.365Z,99.99
2018-08-06T03:15:34.295Z,99.99
2018-08-06T03:16:34.312Z,99.99
2018-08-06T03:18:27.257Z,99.99
2018-08-06T03:19:27.252Z,99.99
2018-08-06T03:21:20.208Z,99.99
2018-08-06T03:22:20.202Z,99.99
2018-08-06T03:24:13.136Z,99.99
2018-08-06T03:25:13.151Z,99.99
2018-08-06T03:27:06.096Z,99.99
2018-08-06T03:28:06.092Z,99.99
2018-08-06T03:29:59.026Z,99.99
2018-08-06T03:30:59.033Z,99.99
2018-08-06T03:32:51.980Z,99.99
2018-08-06T03:33:51.980Z,99.99
2018-08-06T03:35:44.905Z,99.99
2018-08-06T03:36:44.916Z,99.99
2018-08-06T03:38:37.863Z,99.99
2018-08-06T03:39:37.856Z,99.99
2018-08-06T03:41:30.813Z,99.99
2018-08-06T03:42:30.808Z,99.99
2018-08-06T03:44:23.736Z,99.99
2018-08-06T03:45:23.748Z,99.99
2018-08-06T03:47:16.698Z,99.99
2018-08-06T03:48:16.691Z,99.99
2018-08-06T03:50:09.616Z,99.99
2018-08-06T03:51:09.629Z,99.99
2018-08-06T03:53:02.580Z,99.99
2018-08-06T03:54:02.573Z,99.99
2018-08-06T03:55:55.505Z,99.99
2018-08-06T03:56:55.518Z,99.99
2018-08-06T03:58:48.468Z,99.99
2018-08-06T03:59:48.466Z,99.99
2018-08-06T04:01:41.411Z,99.99
2018-08-06T04:02:41.406Z,99.99
2018-08-06T04:04:34.340Z,99.99
2018-08-06T04:05:34.349Z,99.99
2018-08-06T04:07:27.300Z,99.99
2018-08-06T04:08:27.293Z,99.99
2018-08-06T04:10:20.220Z,99.99
2018-08-06T04:11:20.244Z,99.99
2018-08-06T04:13:13.186Z,99.99
2018-08-06T04:14:13.180Z,99.99
2018-08-06T04:16:06.120Z,99.99
2018-08-06T04:17:06.135Z,99.99
2018-08-06T04:18:59.080Z,99.99
2018-08-06T04:19:59.075Z,99.99
2018-08-06T04:21:52.023Z,99.99
2018-08-06T04:22:52.012Z,99.99
2018-08-06T04:24:44.943Z,99.99
2018-08-06T04:25:44.962Z,99.99
2018-08-06T04:27:37.904Z,99.99
2018-08-06T04:28:37.900Z,99.99
2018-08-06T04:30:30.826Z,99.99
2018-08-06T04:31:30.842Z,99.99
2018-08-06T04:33:23.786Z,99.99
2018-08-06T04:34:23.785Z,99.99
2018-08-06T04:36:16.711Z,99.99
2018-08-06T04:37:16.726Z,99.99
2018-08-06T04:39:09.686Z,99.99
2018-08-06T04:40:09.681Z,99.99
2018-08-06T04:42:02.635Z,99.99
2018-08-06T04:43:02.631Z,99.99
2018-08-06T04:44:55.563Z,99.99
2018-08-06T04:45:55.583Z,99.99
2018-08-06T04:47:48.528Z,99.99
2018-08-06T04:48:48.521Z,99.99
2018-08-06T04:50:41.456Z,99.99
2018-08-06T04:51:41.463Z,99.99
2018-08-06T04:53:34.412Z,99.99
2018-08-06T04:54:34.408Z,99.99
2018-08-06T04:56:27.342Z,99.99
2018-08-06T04:57:27.358Z,99.99
2018-08-06T04:59:20.307Z,99.99
2018-08-06T05:00:20.305Z,99.99
2018-08-06T05:02:13.271Z,99.99
2018-08-06T05:03:13.264Z,99.99
2018-08-06T05:05:06.190Z,99.99
2018-08-06T05:06:06.205Z,99.99
2018-08-06T05:07:59.152Z,99.99
2018-08-06T05:08:59.149Z,99.99
2018-08-06T05:10:52.075Z,99.99
2018-08-06T05:11:52.093Z,99.99
2018-08-06T05:13:45.091Z,99.99
2018-08-06T05:14:45.039Z,99.99
2018-08-06T05:16:37.977Z,99.99
2018-08-06T05:17:37.990Z,99.99
2018-08-06T05:19:30.983Z,99.99
2018-08-06T05:20:30.931Z,99.99
2018-08-06T05:22:23.890Z,99.99
2018-08-06T05:23:23.883Z,99.99
2018-08-06T05:25:16.818Z,99.99
2018-08-06T05:26:16.835Z,99.99
2018-08-06T05:28:09.781Z,99.99
2018-08-06T05:29:09.777Z,99.99
2018-08-06T05:31:02.700Z,99.99
2018-08-06T05:32:02.724Z,99.99
2018-08-06T05:33:55.674Z,99.99
2018-08-06T05:34:55.679Z,99.99
2018-08-06T05:36:48.606Z,99.99
2018-08-06T05:37:48.619Z,99.99
2018-08-06T05:39:41.567Z,99.99
2018-08-06T05:40:41.566Z,99.99
2018-08-06T05:42:34.517Z,99.99
2018-08-06T05:43:34.512Z,99.99
2018-08-06T05:45:27.466Z,99.99
2018-08-06T05:46:27.482Z,99.99
2018-08-06T05:48:20.442Z,99.99
2018-08-06T05:49:20.435Z,99.99
2018-08-06T05:51:13.362Z,99.99
2018-08-06T05:52:13.380Z,99.99
2018-08-06T05:54:06.331Z,99.99
2018-08-06T05:55:06.325Z,99.59
2018-08-06T05:56:59.254Z,98.63
2018-08-06T05:57:59.275Z,97.19
2018-08-06T05:59:52.228Z,95.94
2018-08-06T06:00:52.264Z,96.08
2018-08-06T06:02:45.170Z,95.02
2018-08-06T06:03:45.167Z,95.89
2018-08-06T06:05:38.096Z,92.90
2018-08-06T06:06:38.112Z,94.34
2018-08-06T06:08:31.066Z,92.52
2018-08-06T06:09:31.058Z,92.22
2018-08-06T06:11:24.121Z,92.66
2018-08-06T06:12:24.139Z,92.56
2018-08-06T06:14:17.091Z,90.25
2018-08-06T06:15:17.084Z,88.75
2018-08-06T06:17:10.019Z,77.15
2018-08-06T06:18:10.035Z,71.46
2018-08-06T06:20:02.999Z,65.17
2018-08-06T06:21:02.988Z,63.17
2018-08-06T06:22:55.947Z,57.69
2018-08-06T06:23:55.942Z,55.49
2018-08-06T06:25:48.906Z,52.16
2018-08-06T06:26:48.897Z,51.19
2018-08-06T06:28:41.910Z,50.60
2018-08-06T06:29:41.852Z,51.26
2018-08-06T06:31:34.788Z,52.67
2018-08-06T06:32:34.811Z,53.13
2018-08-06T06:34:27.828Z,51.92
2018-08-06T06:35:27.767Z,50.97
2018-08-06T06:37:20.710Z,49.85
2018-08-06T06:38:20.730Z,49.76
2018-08-06T06:40:13.690Z,49.27
2018-08-06T06:41:13.696Z,49.27
2018-08-06T06:43:06.651Z,48.32
2018-08-06T06:44:06.651Z,47.53
2018-08-06T06:45:59.593Z,47.29
2018-08-06T06:46:59.613Z,46.51
2018-08-06T06:48:52.643Z,46.47
2018-08-06T06:49:52.583Z,46.59
2018-08-06T06:51:45.522Z,45.92
2018-08-06T06:52:45.543Z,45.92
2018-08-06T06:54:38.515Z,45.36
2018-08-06T06:55:38.514Z,44.51
2018-08-06T06:57:31.462Z,44.02
2018-08-06T06:58:31.484Z,43.71
2018-08-06T07:00:24.473Z,43.53
2018-08-06T07:01:24.448Z,43.80
2018-08-06T07:03:17.428Z,43.73
2018-08-06T07:04:17.422Z,43.24
2018-08-06T07:06:10.367Z,42.77
2018-08-06T07:07:10.390Z,43.33
2018-08-06T07:09:03.354Z,44.09
2018-08-06T07:10:03.359Z,44.19
2018-08-06T07:11:56.301Z,44.21
2018-08-06T07:12:56.326Z,43.04
2018-08-06T07:14:49.296Z,42.87
2018-08-06T07:15:49.296Z,42.26
2018-08-06T07:17:42.241Z,42.94
2018-08-06T07:18:42.265Z,43.04
2018-08-06T07:20:35.229Z,42.48
2018-08-06T07:21:35.234Z,42.55
2018-08-06T07:23:28.202Z,42.29
2018-08-06T07:24:28.208Z,41.99
2018-08-06T07:26:21.163Z,41.67
2018-08-06T07:27:21.179Z,41.31
2018-08-06T07:29:14.142Z,41.89
2018-08-06T07:30:14.145Z,42.07
2018-08-06T07:32:07.090Z,43.22
2018-08-06T07:33:07.113Z,43.22
2018-08-06T07:35:00.078Z,43.32
2018-08-06T07:36:00.083Z,42.44
2018-08-06T07:37:53.045Z,42.55
2018-08-06T07:38:53.069Z,42.46
2018-08-06T07:40:46.026Z,42.07
2018-08-06T07:41:46.037Z,41.97
2018-08-06T07:43:39.029Z,42.36
2018-08-06T07:44:39.008Z,42.55
2018-08-06T07:46:31.959Z,43.22
2018-08-06T07:47:31.979Z,43.02
2018-08-06T07:49:24.971Z,42.54
2018-08-06T07:50:24.958Z,42.93
2018-08-06T07:52:17.906Z,42.83
2018-08-06T07:53:17.929Z,42.93
2018-08-06T07:55:10.899Z,43.51
2018-08-06T07:56:10.901Z,43.19
2018-08-06T07:58:03.849Z,44.05
2018-08-06T07:59:03.868Z,44.44
2018-08-06T08:00:56.840Z,45.20
2018-08-06T08:01:56.842Z,44.98
2018-08-06T08:03:49.815Z,45.39
2018-08-06T08:04:49.815Z,45.95
2018-08-06T08:06:42.771Z,45.59
2018-08-06T08:07:42.785Z,45.32
2018-08-06T08:09:35.746Z,45.51
2018-08-06T08:10:35.750Z,46.49
2018-08-06T08:12:28.700Z,45.10
2018-08-06T08:13:28.725Z,45.00
2018-08-06T08:15:21.687Z,45.98
2018-08-06T08:16:21.695Z,45.78
2018-08-06T08:18:14.637Z,45.00
2018-08-06T08:19:14.659Z,45.68
2018-08-06T08:21:07.619Z,46.08
2018-08-06T08:22:07.624Z,45.78
2018-08-06T08:24:00.588Z,45.49
2018-08-06T08:25:00.587Z,45.98
2018-08-06T08:26:53.530Z,46.34
2018-08-06T08:27:53.555Z,46.93
2018-08-06T08:29:46.510Z,46.08
2018-08-06T08:30:46.510Z,46.08
2018-08-06T08:32:39.458Z,45.20
2018-08-06T08:33:39.480Z,45.78
2018-08-06T08:35:32.440Z,46.54
2018-08-06T08:36:32.438Z,46.05
2018-08-06T08:38:25.387Z,46.08
2018-08-06T08:39:25.407Z,45.39
2018-08-06T08:41:18.373Z,46.08
2018-08-06T08:42:18.376Z,45.39
2018-08-06T08:44:11.338Z,45.68
2018-08-06T08:45:11.338Z,46.08
2018-08-06T08:47:04.284Z,46.76
2018-08-06T08:48:04.297Z,46.56
2018-08-06T08:49:57.262Z,45.98
2018-08-06T08:50:57.264Z,45.29
2018-08-06T08:52:50.215Z,45.59
2018-08-06T08:53:50.235Z,45.00
2018-08-06T08:55:43.195Z,45.49
2018-08-06T08:56:43.196Z,45.78
2018-08-06T08:58:36.186Z,45.61
2018-08-06T08:59:36.158Z,44.90
2018-08-06T09:01:29.131Z,45.49
2018-08-06T09:02:29.132Z,45.59
2018-08-06T09:04:22.132Z,46.08
2018-08-06T09:05:22.128Z,46.37
2018-08-06T09:07:15.116Z,46.37
2018-08-06T09:08:15.090Z,45.78
2018-08-06T09:10:08.049Z,46.10
2018-08-06T09:11:08.048Z,45.61
2018-08-06T09:13:00.995Z,45.29
2018-08-06T09:14:01.067Z,45.68
2018-08-06T09:15:53.975Z,45.39
2018-08-06T09:16:53.981Z,45.03
2018-08-06T09:18:46.913Z,45.64
2018-08-06T09:19:46.972Z,45.25
2018-08-06T09:21:39.892Z,44.09
2018-08-06T09:22:39.894Z,45.17
2018-08-06T09:24:32.856Z,43.80
2018-08-06T09:25:32.852Z,43.22
2018-08-06T09:27:25.793Z,43.04
2018-08-06T09:28:25.814Z,43.92
2018-08-06T09:30:18.873Z,42.75
2018-08-06T09:31:18.772Z,43.04
2018-08-06T09:33:11.711Z,42.68
2018-08-06T09:34:11.732Z,42.55
2018-08-06T09:36:04.697Z,42.75
2018-08-06T09:37:04.691Z,44.12
2018-08-06T09:38:57.637Z,43.14
2018-08-06T09:39:57.656Z,42.29
2018-08-06T09:41:50.629Z,41.99
2018-08-06T09:42:50.608Z,41.89
2018-08-06T09:44:43.570Z,43.07
2018-08-06T09:45:43.576Z,42.77
2018-08-06T09:47:36.513Z,42.38
2018-08-06T09:48:36.583Z,43.16
2018-08-06T09:50:29.489Z,42.40
2018-08-06T09:51:29.489Z,43.08
2018-08-06T09:53:22.435Z,41.42
2018-08-06T09:54:22.450Z,41.13
2018-08-06T09:56:15.410Z,40.82
2018-08-06T09:57:15.421Z,41.31
2018-08-06T09:59:08.357Z,41.31
2018-08-06T10:00:08.376Z,41.52
2018-08-06T10:02:01.355Z,41.33
2018-08-06T10:03:01.348Z,41.03
2018-08-06T10:04:54.328Z,40.47
2018-08-06T10:05:54.391Z,39.88
2018-08-06T10:07:47.252Z,39.49
2018-08-06T10:08:47.273Z,39.49
2018-08-06T10:10:40.239Z,38.82
2018-08-06T10:11:40.244Z,39.59
2018-08-06T10:13:33.189Z,39.69
2018-08-06T10:14:33.210Z,39.69
2018-08-06T10:16:26.183Z,39.59
2018-08-06T10:17:26.185Z,40.17
2018-08-06T10:19:19.233Z,39.70
2018-08-06T10:20:19.145Z,39.51
2018-08-06T10:22:12.109Z,37.57
2018-08-06T10:23:12.107Z,37.95
2018-08-06T10:25:05.087Z,38.43
2018-08-06T10:26:05.077Z,38.53
2018-08-06T10:27:58.017Z,38.45
2018-08-06T10:28:58.039Z,37.77
2018-08-06T10:30:50.998Z,37.39
2018-08-06T10:31:51.003Z,36.90
2018-08-06T10:33:43.945Z,37.00
2018-08-06T10:34:43.964Z,36.12
2018-08-06T10:36:36.919Z,37.27
2018-08-06T10:37:36.929Z,37.27
2018-08-06T10:39:29.878Z,37.49
2018-08-06T10:40:29.983Z,37.39
2018-08-06T10:42:22.857Z,36.71
2018-08-06T10:43:22.856Z,36.71
2018-08-06T10:45:15.826Z,36.41
2018-08-06T10:46:15.820Z,37.00
2018-08-06T10:48:08.764Z,35.73
2018-08-06T10:49:08.785Z,35.65
2018-08-06T10:51:01.746Z,35.75
2018-08-06T10:52:01.748Z,35.65
2018-08-06T10:53:54.706Z,35.75
2018-08-06T10:54:54.712Z,36.63
2018-08-06T10:56:47.674Z,36.30
2018-08-06T10:57:47.672Z,37.08
2018-08-06T10:59:40.671Z,36.79
2018-08-06T11:00:40.663Z,36.90
2018-08-06T11:02:33.604Z,37.18
2018-08-06T11:03:33.607Z,37.00
2018-08-06T11:05:26.583Z,37.10
2018-08-06T11:06:26.575Z,36.90
2018-08-06T11:08:19.517Z,36.72
2018-08-06T11:09:19.539Z,37.02
2018-08-06T11:11:12.502Z,36.74
2018-08-06T11:12:12.499Z,36.43
2018-08-06T11:14:05.490Z,35.86
2018-08-06T11:15:05.466Z,35.76
2018-08-06T11:16:58.429Z,34.90
2018-08-06T11:17:58.431Z,34.21
2018-08-06T11:19:51.375Z,33.70
2018-08-06T11:20:51.396Z,34.10
2018-08-06T11:22:44.369Z,33.31
2018-08-06T11:23:44.374Z,33.51
2018-08-06T11:25:37.318Z,33.70
2018-08-06T11:26:37.340Z,33.23
2018-08-06T11:28:30.347Z,33.43
2018-08-06T11:29:30.308Z,33.04
2018-08-06T11:31:23.277Z,34.61
2018-08-06T11:32:23.285Z,34.33
2018-08-06T11:34:16.225Z,32.25
2018-08-06T11:35:16.245Z,32.64
2018-08-06T11:37:09.214Z,33.23
2018-08-06T11:38:09.210Z,34.01
2018-08-06T11:40:02.147Z,33.92
2018-08-06T11:41:02.171Z,34.01
2018-08-06T11:42:55.138Z,33.82
2018-08-06T11:43:55.137Z,34.01
2018-08-06T11:45:48.082Z,33.34
2018-08-06T11:46:48.105Z,33.15
2018-08-06T11:48:41.070Z,32.76
2018-08-06T11:49:41.070Z,33.07
2018-08-06T11:51:34.041Z,31.99
2018-08-06T11:52:34.045Z,32.78
2018-08-06T11:54:26.993Z,32.78
2018-08-06T11:55:27.015Z,32.28
2018-08-06T11:57:19.981Z,32.68
2018-08-06T11:58:19.987Z,31.99
2018-08-06T12:00:12.928Z,31.60
2018-08-06T12:01:12.952Z,31.79
2018-08-06T12:03:05.917Z,31.70
2018-08-06T12:04:05.921Z,31.79
2018-08-06T12:05:58.869Z,32.18
2018-08-06T12:06:58.884Z,31.60
2018-08-06T12:08:51.851Z,31.77
2018-08-06T12:09:51.850Z,31.58
2018-08-06T12:11:44.818Z,32.38
2018-08-06T12:12:44.821Z,32.09
2018-08-06T12:14:37.775Z,31.89
2018-08-06T12:15:37.792Z,32.28
2018-08-06T12:17:30.759Z,31.99
2018-08-06T12:18:30.763Z,31.90
2018-08-06T12:20:23.754Z,31.81
2018-08-06T12:21:23.731Z,31.81
2018-08-06T12:23:16.699Z,32.01
2018-08-06T12:24:16.701Z,32.01
2018-08-06T12:26:09.724Z,31.01
2018-08-06T12:27:09.721Z,31.50
2018-08-06T12:29:02.625Z,30.82
2018-08-06T12:30:02.630Z,30.04
2018-08-06T12:31:55.607Z,31.41
2018-08-06T12:32:55.613Z,31.71
2018-08-06T12:34:48.568Z,31.12
2018-08-06T12:35:48.589Z,30.82
2018-08-06T12:37:41.551Z,29.83
2018-08-06T12:38:41.556Z,30.52
2018-08-06T12:40:34.503Z,31.01
2018-08-06T12:41:34.522Z,30.52
2018-08-06T12:43:27.492Z,30.81
2018-08-06T12:44:27.495Z,31.01
2018-08-06T12:46:20.565Z,30.81
2018-08-06T12:47:20.462Z,31.01
2018-08-06T12:49:13.432Z,30.91
2018-08-06T12:50:13.431Z,30.81
2018-08-06T12:52:06.402Z,30.62
2018-08-06T12:53:06.407Z,31.89
2018-08-06T12:54:59.349Z,30.91
2018-08-06T12:55:59.371Z,30.91
2018-08-06T12:57:52.337Z,30.81
2018-08-06T12:58:52.343Z,30.71
2018-08-06T13:00:45.289Z,30.33
2018-08-06T13:01:45.310Z,30.62
2018-08-06T13:03:38.281Z,30.43
2018-08-06T13:04:38.287Z,29.75
2018-08-06T13:06:31.234Z,29.85
2018-08-06T13:07:31.257Z,29.76
2018-08-06T13:09:24.220Z,30.55
2018-08-06T13:10:24.226Z,29.37
2018-08-06T13:12:17.189Z,29.47
2018-08-06T13:13:17.190Z,29.17
2018-08-06T13:15:10.152Z,29.86
2018-08-06T13:16:10.167Z,29.57
2018-08-06T13:18:03.204Z,29.86
2018-08-06T13:19:03.138Z,29.07
2018-08-06T13:20:56.093Z,29.76
2018-08-06T13:21:56.114Z,29.76
2018-08-06T13:23:49.072Z,29.76
2018-08-06T13:24:49.078Z,29.57
2018-08-06T13:26:42.017Z,28.78
2018-08-06T13:27:42.047Z,29.17
2018-08-06T13:29:35.010Z,29.45
2018-08-06T13:30:35.011Z,29.45
2018-08-06T13:32:27.976Z,29.66
2018-08-06T13:33:27.980Z,29.45
2018-08-06T13:35:20.928Z,29.37
2018-08-06T13:36:20.950Z,29.47
2018-08-06T13:38:13.919Z,29.86
2018-08-06T13:39:13.922Z,29.76
2018-08-06T13:41:06.866Z,29.86
2018-08-06T13:42:06.890Z,29.47
2018-08-06T13:43:59.851Z,29.37
2018-08-06T13:44:59.858Z,29.76
2018-08-06T13:46:52.895Z,29.75
2018-08-06T13:47:52.821Z,29.96
2018-08-06T13:49:45.791Z,29.96
2018-08-06T13:50:45.791Z,29.47
2018-08-06T13:52:38.763Z,29.86
2018-08-06T13:53:38.765Z,29.66
2018-08-06T13:55:31.715Z,29.86
2018-08-06T13:56:31.737Z,29.47
2018-08-06T13:58:24.706Z,28.97
2018-08-06T13:59:24.766Z,29.66
2018-08-06T14:01:17.657Z,29.57
2018-08-06T14:02:17.681Z,29.66
2018-08-06T14:04:10.653Z,29.57
2018-08-06T14:05:10.653Z,29.76
2018-08-06T14:07:03.630Z,29.47
2018-08-06T14:08:03.625Z,29.37
2018-08-06T14:09:56.594Z,29.66
2018-08-06T14:10:56.596Z,29.37
2018-08-06T14:12:49.559Z,28.67
2018-08-06T14:13:49.560Z,29.06
2018-08-06T14:15:42.503Z,29.35
2018-08-06T14:16:42.575Z,29.45
2018-08-06T14:18:35.496Z,29.17
2018-08-06T14:19:35.498Z,28.88
2018-08-06T14:21:28.445Z,28.97
2018-08-06T14:22:28.470Z,28.88
2018-08-06T14:24:21.431Z,28.78
2018-08-06T14:25:21.435Z,28.88
2018-08-06T14:27:14.392Z,28.78
2018-08-06T14:28:14.413Z,28.29
2018-08-06T14:30:07.383Z,28.50
2018-08-06T14:31:07.388Z,27.91
2018-08-06T14:33:00.349Z,28.39
2018-08-06T14:34:00.351Z,28.68
2018-08-06T14:35:53.302Z,29.17
2018-08-06T14:36:53.327Z,28.97
2018-08-06T14:38:46.289Z,29.17
2018-08-06T14:39:46.295Z,28.49
2018-08-06T14:41:39.246Z,28.59
2018-08-06T14:42:39.267Z,28.30
2018-08-06T14:44:32.233Z,28.00
2018-08-06T14:45:32.234Z,27.91
2018-08-06T14:47:25.183Z,27.80
2018-08-06T14:48:25.208Z,27.89
2018-08-06T14:50:18.175Z,28.20
2018-08-06T14:51:18.176Z,28.11
2018-08-06T14:53:11.142Z,28.09
2018-08-06T14:54:11.148Z,27.89
2018-08-06T14:56:04.096Z,28.39
2018-08-06T14:57:04.117Z,28.11
2018-08-06T14:58:57.081Z,28.29
2018-08-06T14:59:57.089Z,28.20
2018-08-06T15:01:50.032Z,27.81
2018-08-06T15:02:50.051Z,27.89
2018-08-06T15:04:43.019Z,27.89
2018-08-06T15:05:43.024Z,27.99
2018-08-06T15:07:35.971Z,28.09
2018-08-06T15:08:35.992Z,28.58
2018-08-06T15:10:28.952Z,27.70
2018-08-06T15:11:29.022Z,27.89
2018-08-06T15:13:21.920Z,28.68
2018-08-06T15:14:21.923Z,28.68
2018-08-06T15:16:14.871Z,28.58
2018-08-06T15:17:14.896Z,28.09
2018-08-06T15:19:07.861Z,28.39
2018-08-06T15:20:07.864Z,28.19
2018-08-06T15:22:00.810Z,28.58
2018-08-06T15:23:00.836Z,28.97
2018-08-06T15:24:53.801Z,28.88
2018-08-06T15:25:53.804Z,28.88
2018-08-06T15:27:46.751Z,28.49
2018-08-06T15:28:46.772Z,28.58
2018-08-06T15:30:39.735Z,28.68
2018-08-06T15:31:39.741Z,28.97
2018-08-06T15:33:32.709Z,29.37
2018-08-06T15:34:32.709Z,28.68
2018-08-06T15:36:25.651Z,29.07
2018-08-06T15:37:25.731Z,28.78
2018-08-06T15:39:18.638Z,28.67
2018-08-06T15:40:18.641Z,28.57
2018-08-06T15:42:11.599Z,29.35
2018-08-06T15:43:11.621Z,28.75
2018-08-06T15:45:04.581Z,29.44
2018-08-06T15:46:04.589Z,29.73
2018-08-06T15:47:57.532Z,31.09
2018-08-06T15:48:57.557Z,30.70
2018-08-06T15:50:50.515Z,30.11
2018-08-06T15:51:50.520Z,29.82
2018-08-06T15:53:43.488Z,29.72
2018-08-06T15:54:43.490Z,30.60
2018-08-06T15:56:36.433Z,29.91
2018-08-06T15:57:36.459Z,30.90
2018-08-06T15:59:29.423Z,30.70
2018-08-06T16:00:29.427Z,30.80
2018-08-06T16:02:22.379Z,30.70
2018-08-06T16:03:22.439Z,30.99
2018-08-06T16:05:15.360Z,30.90
2018-08-06T16:06:15.367Z,30.30
2018-08-06T16:08:08.311Z,29.72
2018-08-06T16:09:08.332Z,29.82
2018-08-06T16:11:01.300Z,29.83
2018-08-06T16:12:01.307Z,30.30
2018-08-06T16:13:54.270Z,30.99
2018-08-06T16:14:54.271Z,30.80
2018-08-06T16:16:47.218Z,30.90
2018-08-06T16:17:47.241Z,31.09
2018-08-06T16:19:40.206Z,30.60
2018-08-06T16:20:40.209Z,30.50
2018-08-06T16:22:33.147Z,30.80
2018-08-06T16:23:33.173Z,30.70
2018-08-06T16:25:26.141Z,31.68
2018-08-06T16:26:26.137Z,31.77
2018-08-06T16:28:19.086Z,31.77
2018-08-06T16:29:19.105Z,31.67
2018-08-06T16:31:12.126Z,31.76
2018-08-06T16:32:12.084Z,31.57
2018-08-06T16:34:05.060Z,31.67
2018-08-06T16:35:05.066Z,31.76
2018-08-06T16:36:58.011Z,31.96
2018-08-06T16:37:58.060Z,31.47
2018-08-06T16:39:50.999Z,31.86
2018-08-06T16:40:51.004Z,31.86
2018-08-06T16:42:43.948Z,31.96
2018-08-06T16:43:43.963Z,32.54
2018-08-06T16:45:36.954Z,32.35
2018-08-06T16:46:36.951Z,32.06
2018-08-06T16:48:29.880Z,32.06
2018-08-06T16:49:29.904Z,32.35
2018-08-06T16:51:22.868Z,32.25
2018-08-06T16:52:22.897Z,32.35
2018-08-06T16:54:15.836Z,31.96
2018-08-06T16:55:15.842Z,31.94
2018-08-06T16:57:08.781Z,32.04
2018-08-06T16:58:08.803Z,32.23
2018-08-06T17:00:01.769Z,32.34
2018-08-06T17:01:01.833Z,32.82
2018-08-06T17:02:54.708Z,32.53
2018-08-06T17:03:54.729Z,32.04
2018-08-06T17:05:47.694Z,31.94
2018-08-06T17:06:47.729Z,32.04
2018-08-06T17:08:40.644Z,32.12
2018-08-06T17:09:40.662Z,32.82
2018-08-06T17:11:33.632Z,32.71
2018-08-06T17:12:33.736Z,33.59
2018-08-06T17:14:26.592Z,32.90
2018-08-06T17:15:26.604Z,33.39
2018-08-06T17:17:19.540Z,34.28
2018-08-06T17:18:19.557Z,34.67
2018-08-06T17:20:12.523Z,33.38
2018-08-06T17:21:12.527Z,33.69
2018-08-06T17:23:05.463Z,34.67
2018-08-06T17:24:05.501Z,34.75
2018-08-06T17:25:58.451Z,33.89
2018-08-06T17:26:58.453Z,34.47
2018-08-06T17:28:51.394Z,35.34
2018-08-06T17:29:51.426Z,35.73
2018-08-06T17:31:44.377Z,35.24
2018-08-06T17:32:44.382Z,34.65
2018-08-06T17:34:37.348Z,34.55
2018-08-06T17:35:37.345Z,35.24
2018-08-06T17:37:30.288Z,35.24
2018-08-06T17:38:30.308Z,35.34
2018-08-06T17:40:23.270Z,35.14
2018-08-06T17:41:23.265Z,35.44
2018-08-06T17:43:16.210Z,35.83
2018-08-06T17:44:16.231Z,36.10
2018-08-06T17:46:09.191Z,36.30
2018-08-06T17:47:09.194Z,36.49
2018-08-06T17:49:02.142Z,36.10
2018-08-06T17:50:02.207Z,36.49
2018-08-06T17:51:55.121Z,36.69
2018-08-06T17:52:55.122Z,37.08
2018-08-06T17:54:48.086Z,36.18
2018-08-06T17:55:48.108Z,35.60
2018-08-06T17:57:41.041Z,35.71
2018-08-06T17:58:41.053Z,35.79
2018-08-06T18:00:34.014Z,35.50
2018-08-06T18:01:34.017Z,35.52
2018-08-06T18:03:26.956Z,36.08
2018-08-06T18:04:26.975Z,36.38
2018-08-06T18:06:19.938Z,37.06
2018-08-06T18:07:19.935Z,37.26
2018-08-06T18:09:12.899Z,36.96
2018-08-06T18:10:12.907Z,37.45
2018-08-06T18:12:05.867Z,37.34
2018-08-06T18:13:05.865Z,37.83
2018-08-06T18:14:58.830Z,37.83
2018-08-06T18:15:58.823Z,38.42
2018-08-06T18:17:51.775Z,38.40
2018-08-06T18:18:51.798Z,38.79
2018-08-06T18:20:44.755Z,38.79
2018-08-06T18:21:44.760Z,38.89
2018-08-06T18:23:37.701Z,39.08
2018-08-06T18:24:37.721Z,39.45
2018-08-06T18:26:30.690Z,39.84
2018-08-06T18:27:30.721Z,40.14
2018-08-06T18:29:23.629Z,40.23
2018-08-06T18:30:23.648Z,40.11
2018-08-06T18:32:16.611Z,40.60
2018-08-06T18:33:16.609Z,40.41
2018-08-06T18:35:09.576Z,40.99
2018-08-06T18:36:09.581Z,40.70
2018-08-06T18:38:02.515Z,40.97
2018-08-06T18:39:02.535Z,40.97
2018-08-06T18:40:55.497Z,40.78
2018-08-06T18:41:55.493Z,41.27
2018-08-06T18:43:48.437Z,41.46
2018-08-06T18:44:48.469Z,41.66
2018-08-06T18:46:41.423Z,41.85
2018-08-06T18:47:41.422Z,42.12
2018-08-06T18:49:34.360Z,41.83
2018-08-06T18:50:34.380Z,41.73
2018-08-06T18:52:27.402Z,42.22
2018-08-06T18:53:27.346Z,42.12
2018-08-06T18:55:20.303Z,42.69
2018-08-06T18:56:20.303Z,42.49
2018-08-06T18:58:13.247Z,43.18
2018-08-06T18:59:13.269Z,42.88
2018-08-06T19:01:06.243Z,42.79